createdAt,value
2023-04-02T00:01:04.748Z,101974.53
2023-04-02T00:03:43.148Z,101983.50
2023-04-02T00:06:36.050Z,101979.88
2023-04-02T00:09:23.088Z,101973.03
2023-04-02T00:11:57.416Z,101969.81
2023-04-02T00:14:37.619Z,101970.03
2023-04-02T00:17:07.213Z,101970.91
2023-04-02T00:19:47.888Z,101971.63
2023-04-02T00:22:20.310Z,101978.94
2023-04-02T00:24:53.168Z,101977.25
2023-04-02T00:27:22.388Z,101975.69
2023-04-02T00:29:56.340Z,101973.97
2023-04-02T00:32:30.968Z,101974.84
2023-04-02T00:35:00.219Z,101975.84
2023-04-02T00:37:39.602Z,101969.69
2023-04-02T00:40:32.977Z,101969.78
2023-04-02T00:43:05.195Z,101972.91
2023-04-02T00:45:39.666Z,101975.88
2023-04-02T00:48:26.137Z,101980.47
2023-04-02T00:50:55.858Z,101989.53
2023-04-02T00:53:28.476Z,101976.44
2023-04-02T00:56:00.321Z,101979.13
2023-04-02T00:58:32.871Z,101980.94
2023-04-02T01:01:02.033Z,101974.69
2023-04-02T01:03:37.110Z,101972.97
2023-04-02T01:06:11.441Z,101974.06
2023-04-02T01:08:48.516Z,101971.38
2023-04-02T01:11:34.602Z,101964.66
2023-04-02T01:14:35.518Z,101969.38
2023-04-02T01:17:29.183Z,101965.03
2023-04-02T01:20:19.308Z,101961.63
2023-04-02T01:23:08.950Z,101957.41
2023-04-02T01:25:53.676Z,101960.16
2023-04-02T01:28:36.216Z,101965.66
2023-04-02T01:31:05.327Z,101964.31
2023-04-02T01:33:37.447Z,101967.22
2023-04-02T01:36:19.533Z,101964.91
2023-04-02T01:39:13.205Z,101966.91
2023-04-02T01:41:52.509Z,101967.09
2023-04-02T01:44:37.260Z,101961.75
2023-04-02T01:47:09.284Z,101959.09
2023-04-02T01:49:37.750Z,101969.78
2023-04-02T01:52:06.249Z,101966.31
2023-04-02T01:54:42.928Z,101970.03
2023-04-02T01:57:11.688Z,101975.56
2023-04-02T01:59:40.940Z,101970.47
2023-04-02T02:02:14.311Z,101969.66
2023-04-02T02:04:42.880Z,101967.22
2023-04-02T02:07:20.349Z,101971.88
2023-04-02T02:09:50.126Z,101970.25
2023-04-02T02:12:18.623Z,101967.69
2023-04-02T02:14:51.687Z,101967.69
2023-04-02T02:17:25.012Z,101974.00
2023-04-02T02:19:58.009Z,101971.50
2023-04-02T02:22:26.164Z,101972.56
2023-04-02T02:24:56.074Z,101966.50
2023-04-02T02:27:24.215Z,101969.25
2023-04-02T02:30:17.273Z,101970.22
2023-04-02T02:33:16.165Z,101962.31
2023-04-02T02:36:06.459Z,101970.50
2023-04-02T02:38:57.413Z,101971.47
2023-04-02T02:41:28.630Z,101975.06
2023-04-02T02:44:20.747Z,101972.53
2023-04-02T02:46:56.079Z,101969.06
2023-04-02T02:49:31.444Z,101973.59
2023-04-02T02:52:11.819Z,101970.97
2023-04-02T02:54:46.028Z,101976.34
2023-04-02T02:57:27.177Z,101975.53
2023-04-02T02:59:58.314Z,101973.06
2023-04-02T03:02:28.658Z,101971.38
2023-04-02T03:04:58.990Z,101982.97
2023-04-02T03:07:30.098Z,101983.88
2023-04-02T03:10:16.206Z,101991.03
2023-04-02T03:12:54.207Z,101986.69
2023-04-02T03:15:51.140Z,101978.75
2023-04-02T03:19:02.467Z,101992.06
2023-04-02T03:21:44.765Z,101988.47
2023-04-02T03:24:42.511Z,101990.38
2023-04-02T03:27:17.724Z,102001.97
2023-04-02T03:30:14.432Z,101994.03
2023-04-02T03:32:45.510Z,101999.31
2023-04-02T03:35:26.500Z,101996.66
2023-04-02T03:38:05.636Z,102004.63
2023-04-02T03:40:40.508Z,102002.06
2023-04-02T03:43:30.137Z,101997.72
2023-04-02T03:46:32.757Z,101996.00
2023-04-02T03:49:07.406Z,102008.47
2023-04-02T03:51:58.359Z,102014.72
2023-04-02T03:54:26.950Z,102004.22
2023-04-02T03:56:55.390Z,102013.19
2023-04-02T03:59:26.775Z,102016.75
2023-04-02T04:02:21.121Z,102013.28
2023-04-02T04:04:51.451Z,102025.75
2023-04-02T04:07:40.483Z,102022.28
2023-04-02T04:10:15.965Z,102033.81
2023-04-02T04:12:51.763Z,102041.88
2023-04-02T04:15:26.007Z,102035.75
2023-04-02T04:18:14.598Z,102035.78
2023-04-02T04:20:57.244Z,102048.22
2023-04-02T04:23:32.973Z,102042.94
2023-04-02T04:26:10.448Z,102051.81
2023-04-02T04:28:59.165Z,102057.22
2023-04-02T04:31:56.309Z,102059.00
2023-04-02T04:34:47.340Z,102063.44
2023-04-02T04:37:38.504Z,102059.91
2023-04-02T04:40:18.234Z,102067.97
2023-04-02T04:42:49.318Z,102068.00
2023-04-02T04:45:47.939Z,102062.69
2023-04-02T04:48:37.885Z,102068.09
2023-04-02T04:51:28.408Z,102065.44
2023-04-02T04:53:56.867Z,102077.06
2023-04-02T04:56:31.698Z,102076.19
2023-04-02T04:59:16.101Z,102078.94
2023-04-02T05:02:23.740Z,102079.00
2023-04-02T05:04:54.177Z,102080.81
2023-04-02T05:07:28.959Z,102075.56
2023-04-02T05:10:13.401Z,102084.50
2023-04-02T05:13:03.017Z,102088.03
2023-04-02T05:15:44.066Z,102090.75
2023-04-02T05:18:32.438Z,102093.44
2023-04-02T05:21:20.847Z,102105.00
2023-04-02T05:24:41.311Z,102105.03
2023-04-02T05:27:19.481Z,102099.72
2023-04-02T05:29:54.602Z,102096.13
2023-04-02T05:32:37.116Z,102092.63
2023-04-02T05:35:07.495Z,102099.75
2023-04-02T05:37:35.891Z,102093.63
2023-04-02T05:40:21.495Z,102094.56
2023-04-02T05:42:53.779Z,102099.88
2023-04-02T05:45:35.675Z,102097.22
2023-04-02T05:48:50.156Z,102091.91
2023-04-02T05:51:23.361Z,102093.75
2023-04-02T05:53:59.405Z,102089.41
2023-04-02T05:56:45.085Z,102088.56
2023-04-02T05:59:22.740Z,102093.88
2023-04-02T06:02:01.048Z,102088.59
2023-04-02T06:04:54.687Z,102078.88
2023-04-02T06:07:35.624Z,102076.22
2023-04-02T06:10:28.338Z,102082.44
2023-04-02T06:13:04.020Z,102085.97
2023-04-02T06:15:34.512Z,102076.25
2023-04-02T06:18:20.913Z,102083.34
2023-04-02T06:20:49.388Z,102076.28
2023-04-02T06:23:33.043Z,102071.84
2023-04-02T06:26:14.093Z,102062.13
2023-04-02T06:28:47.107Z,102069.25
2023-04-02T06:31:36.259Z,102057.72
2023-04-02T06:34:08.592Z,102063.94
2023-04-02T06:36:37.216Z,102055.13
2023-04-02T06:39:16.737Z,102059.59
2023-04-02T06:41:45.095Z,102056.13
2023-04-02T06:44:23.122Z,102050.81
2023-04-02T06:47:04.378Z,102057.91
2023-04-02T06:49:36.255Z,102048.13
2023-04-02T06:52:07.645Z,102048.09
2023-04-02T06:54:36.188Z,102044.53
2023-04-02T06:57:06.573Z,102042.72
2023-04-02T06:59:34.823Z,102040.13
2023-04-02T07:02:27.548Z,102045.44
2023-04-02T07:05:03.744Z,102040.13
2023-04-02T07:07:32.251Z,102038.34
2023-04-02T07:10:00.584Z,102037.50
2023-04-02T07:12:28.971Z,102039.31
2023-04-02T07:14:57.203Z,102037.59
2023-04-02T07:17:25.494Z,102027.91
2023-04-02T07:19:53.735Z,102031.50
2023-04-02T07:22:23.515Z,102033.34
2023-04-02T07:24:51.989Z,102027.16
2023-04-02T07:27:20.170Z,102022.88
2023-04-02T07:29:48.366Z,102026.50
2023-04-02T07:32:16.559Z,102023.94
2023-04-02T07:34:44.880Z,102020.41
2023-04-02T07:37:15.920Z,102022.19
2023-04-02T07:39:44.481Z,102024.84
2023-04-02T07:42:12.692Z,102026.63
2023-04-02T07:44:41.316Z,102025.75
2023-04-02T07:47:11.362Z,102027.53
2023-04-02T07:49:39.918Z,102022.31
2023-04-02T07:52:08.237Z,102017.97
2023-04-02T07:54:40.641Z,102021.56
2023-04-02T07:57:08.897Z,102027.78
2023-04-02T07:59:37.320Z,102017.22
2023-04-02T08:02:06.820Z,102016.38
2023-04-02T08:04:35.057Z,102027.00
2023-04-02T08:07:03.912Z,102016.47
2023-04-02T08:09:32.268Z,102023.50
2023-04-02T08:12:00.467Z,102024.44
2023-04-02T08:14:28.695Z,102023.63
2023-04-02T08:16:57.232Z,102017.53
2023-04-02T08:19:25.563Z,102020.22
2023-04-02T08:21:54.588Z,102024.66
2023-04-02T08:24:23.044Z,102016.75
2023-04-02T08:26:52.322Z,102019.38
2023-04-02T08:29:21.037Z,102032.63
2023-04-02T08:31:49.309Z,102021.13
2023-04-02T08:34:17.505Z,102019.34
2023-04-02T08:36:47.064Z,102010.47
2023-04-02T08:39:15.537Z,102012.22
2023-04-02T08:42:09.689Z,102007.78
2023-04-02T08:45:21.292Z,102013.06
2023-04-02T08:47:56.401Z,101999.81
2023-04-02T08:50:27.445Z,102003.28
2023-04-02T08:52:55.971Z,102001.50
2023-04-02T08:55:48.630Z,101999.69
2023-04-02T08:58:29.691Z,101992.59
2023-04-02T09:01:01.554Z,101989.03
2023-04-02T09:03:36.613Z,101981.97
2023-04-02T09:06:06.417Z,101975.75
2023-04-02T09:08:36.344Z,101976.63
2023-04-02T09:11:08.617Z,101983.69
2023-04-02T09:13:42.003Z,101984.53
2023-04-02T09:16:15.727Z,101973.88
2023-04-02T09:18:45.760Z,101973.88
2023-04-02T09:21:35.476Z,101980.94
2023-04-02T09:24:04.729Z,101974.81
2023-04-02T09:26:34.965Z,101973.91
2023-04-02T09:29:15.431Z,101978.34
2023-04-02T09:31:51.788Z,101980.13
2023-04-02T09:34:35.413Z,101975.72
2023-04-02T09:37:17.245Z,101978.34
2023-04-02T09:39:45.737Z,101968.63
2023-04-02T09:42:43.239Z,101965.09
2023-04-02T09:45:37.690Z,101961.50
2023-04-02T09:48:34.866Z,101951.78
2023-04-02T09:51:22.252Z,101959.69
2023-04-02T09:54:06.983Z,101957.97
2023-04-02T09:56:37.092Z,101955.31
2023-04-02T09:59:14.695Z,101947.31
2023-04-02T10:01:46.479Z,101954.38
2023-04-02T10:04:50.257Z,101949.94
2023-04-02T10:07:42.221Z,101943.69
2023-04-02T10:10:38.502Z,101939.25
2023-04-02T10:13:29.610Z,101934.84
2023-04-02T10:16:25.762Z,101933.06
2023-04-02T10:19:04.135Z,101934.81
2023-04-02T10:21:38.815Z,101923.31
2023-04-02T10:24:13.395Z,101926.75
2023-04-02T10:27:10.410Z,101924.97
2023-04-02T10:30:06.270Z,101923.16
2023-04-02T10:32:58.981Z,101924.91
2023-04-02T10:35:45.451Z,101910.72
2023-04-02T10:38:28.296Z,101915.13
2023-04-02T10:41:09.768Z,101916.00
2023-04-02T10:43:53.083Z,101915.09
2023-04-02T10:46:50.311Z,101916.84
2023-04-02T10:49:56.534Z,101913.34
2023-04-02T10:52:30.633Z,101916.00
2023-04-02T10:55:08.042Z,101917.72
2023-04-02T10:57:41.526Z,101919.50
2023-04-02T11:00:13.241Z,101925.69
2023-04-02T11:03:03.658Z,101927.44
2023-04-02T11:05:54.646Z,101921.19
2023-04-02T11:08:50.157Z,101922.06
2023-04-02T11:11:44.329Z,101915.84
2023-04-02T11:14:25.246Z,101918.50
2023-04-02T11:16:55.445Z,101916.75
2023-04-02T11:19:30.340Z,101909.72
2023-04-02T11:22:03.096Z,101902.66
2023-04-02T11:24:44.070Z,101907.06
2023-04-02T11:27:31.588Z,101908.84
2023-04-02T11:30:27.076Z,101907.06
2023-04-02T11:32:57.164Z,101909.72
2023-04-02T11:35:27.801Z,101902.59
2023-04-02T11:38:04.324Z,101902.63
2023-04-02T11:40:46.192Z,101900.84
2023-04-02T11:43:49.761Z,101896.41
2023-04-02T11:46:17.923Z,101889.34
2023-04-02T11:48:46.744Z,101892.91
2023-04-02T11:51:23.847Z,101888.53
2023-04-02T11:53:54.907Z,101889.47
2023-04-02T11:56:33.848Z,101890.34
2023-04-02T11:59:37.230Z,101881.44
2023-04-02T12:02:11.313Z,101887.66
2023-04-02T12:05:08.367Z,101890.34
2023-04-02T12:07:56.595Z,101891.22
2023-04-02T12:10:33.631Z,101894.75
2023-04-02T12:13:02.017Z,101905.47
2023-04-02T12:15:42.097Z,101912.59
2023-04-02T12:18:22.126Z,101909.19
2023-04-02T12:20:56.784Z,101913.69
2023-04-02T12:23:27.712Z,101915.47
2023-04-02T12:26:07.782Z,101913.66
2023-04-02T12:28:38.902Z,101912.72
2023-04-02T12:31:09.856Z,101913.63
2023-04-02T12:33:42.022Z,101918.09
2023-04-02T12:36:23.317Z,101917.22
2023-04-02T12:38:55.899Z,101921.59
2023-04-02T12:41:34.135Z,101925.16
2023-04-02T12:44:18.344Z,101922.50
2023-04-02T12:46:47.981Z,101918.13
2023-04-02T12:49:30.087Z,101919.00
2023-04-02T12:51:58.993Z,101913.72
2023-04-02T12:54:27.968Z,101919.91
2023-04-02T12:57:16.387Z,101914.63
2023-04-02T12:59:45.003Z,101920.88
2023-04-02T13:02:30.452Z,101918.25
2023-04-02T13:05:04.280Z,101916.53
2023-04-02T13:07:35.034Z,101913.13
2023-04-02T13:10:29.865Z,101908.75
2023-04-02T13:13:00.756Z,101915.88
2023-04-02T13:15:32.779Z,101913.25
2023-04-02T13:18:24.097Z,101915.94
2023-04-02T13:21:28.672Z,101921.31
2023-04-02T13:23:57.306Z,101922.22
2023-04-02T13:26:30.299Z,101919.66
2023-04-02T13:29:01.395Z,101924.06
2023-04-02T13:31:31.739Z,101929.41
2023-04-02T13:34:00.788Z,101931.22
2023-04-02T13:36:30.142Z,101927.72
2023-04-02T13:38:58.724Z,101927.75
2023-04-02T13:41:29.955Z,101931.34
2023-04-02T13:44:03.398Z,101936.66
2023-04-02T13:46:34.051Z,101942.81
2023-04-02T13:49:02.902Z,101938.41
2023-04-02T13:51:46.899Z,101947.25
2023-04-02T13:54:42.459Z,101947.28
2023-04-02T13:57:11.586Z,101950.84
2023-04-02T13:59:39.972Z,101954.34
2023-04-02T14:02:13.524Z,101957.06
2023-04-02T14:04:50.762Z,101955.34
2023-04-02T14:07:32.710Z,101961.50
2023-04-02T14:10:02.758Z,101962.44
2023-04-02T14:12:42.191Z,101965.94
2023-04-02T14:15:19.344Z,101964.16
2023-04-02T14:17:56.991Z,101965.06
2023-04-02T14:20:32.979Z,101960.69
2023-04-02T14:23:19.133Z,101967.75
2023-04-02T14:26:02.754Z,101972.19
2023-04-02T14:28:50.150Z,101972.19
2023-04-02T14:31:23.162Z,101980.13
2023-04-02T14:34:06.691Z,101979.28
2023-04-02T14:36:50.666Z,101981.91
2023-04-02T14:39:27.085Z,101983.69
2023-04-02T14:42:14.645Z,101980.19
2023-04-02T14:44:50.946Z,101992.53
2023-04-02T14:47:28.985Z,101983.69
2023-04-02T14:50:04.956Z,101995.13
2023-04-02T14:52:36.204Z,101999.53
2023-04-02T14:55:15.629Z,101994.22
2023-04-02T14:57:49.894Z,101995.06
2023-04-02T15:00:44.304Z,102004.75
2023-04-02T15:03:29.865Z,102002.97
2023-04-02T15:06:07.296Z,102010.94
2023-04-02T15:09:08.775Z,102003.84
2023-04-02T15:11:48.043Z,102007.38
2023-04-02T15:14:32.747Z,102005.56
2023-04-02T15:17:00.961Z,102011.72
2023-04-02T15:19:29.199Z,102017.03
2023-04-02T15:22:21.901Z,102017.91
2023-04-02T15:25:04.714Z,102023.22
2023-04-02T15:27:42.875Z,102017.88
2023-04-02T15:30:15.822Z,102019.63
2023-04-02T15:32:45.175Z,102021.34
2023-04-02T15:35:47.246Z,102017.78
2023-04-02T15:38:18.524Z,102017.75
2023-04-02T15:41:04.159Z,102022.06
2023-04-02T15:44:13.553Z,102017.59
2023-04-02T15:47:18.782Z,102012.97
2023-04-02T15:50:05.430Z,102014.69
2023-04-02T15:52:41.635Z,102010.25
2023-04-02T15:55:47.440Z,102009.28
2023-04-02T15:58:16.245Z,102018.88
2023-04-02T16:01:12.466Z,102011.78
2023-04-02T16:04:13.950Z,102017.94
2023-04-02T16:07:03.825Z,102016.19
2023-04-02T16:10:07.921Z,102019.66
2023-04-02T16:12:38.384Z,102017.81
2023-04-02T16:15:17.617Z,102028.38
2023-04-02T16:17:49.764Z,102025.72
2023-04-02T16:20:29.538Z,102028.34
2023-04-02T16:23:12.131Z,102017.69
2023-04-02T16:26:02.207Z,102013.25
2023-04-02T16:29:40.979Z,102020.31
2023-04-02T16:32:52.793Z,102016.72
2023-04-02T16:35:43.710Z,102020.22
2023-04-02T16:38:39.349Z,102022.81
2023-04-02T16:41:30.076Z,102026.28
2023-04-02T16:44:21.074Z,102016.53
2023-04-02T16:46:56.631Z,102019.97
2023-04-02T16:49:37.026Z,102011.88
2023-04-02T16:52:29.683Z,102012.63
2023-04-02T16:55:06.498Z,102016.94
2023-04-02T16:58:04.213Z,102018.72
2023-04-02T17:00:50.647Z,102015.06
2023-04-02T17:03:34.118Z,102012.19
2023-04-02T17:06:20.645Z,102009.41
2023-04-02T17:09:12.250Z,102015.47
2023-04-02T17:11:48.470Z,102025.13
2023-04-02T17:14:32.969Z,102027.75
2023-04-02T17:17:04.634Z,102022.31
2023-04-02T17:19:34.272Z,102027.59
2023-04-02T17:22:05.997Z,102021.38
2023-04-02T17:24:39.933Z,102026.75
2023-04-02T17:27:39.601Z,102025.06
2023-04-02T17:30:43.639Z,102026.03
2023-04-02T17:33:16.857Z,102019.81
2023-04-02T17:35:56.979Z,102025.88
2023-04-02T17:38:39.846Z,102017.00
2023-04-02T17:41:39.692Z,102027.50
2023-04-02T17:44:16.740Z,102016.78
2023-04-02T17:47:03.273Z,102018.63
2023-04-02T17:50:18.604Z,102024.75
2023-04-02T17:53:01.942Z,102016.88
2023-04-02T17:55:54.332Z,102025.75
2023-04-02T17:58:40.648Z,102022.16
2023-04-02T18:01:28.998Z,102024.72
2023-04-02T18:04:20.557Z,102032.53
2023-04-02T18:07:27.403Z,102029.75
2023-04-02T18:10:16.715Z,102032.41
2023-04-02T18:13:06.222Z,102019.81
2023-04-02T18:15:54.311Z,102020.53
2023-04-02T18:18:32.136Z,102021.25
2023-04-02T18:21:17.716Z,102015.13
2023-04-02T18:23:55.199Z,102014.13
2023-04-02T18:26:39.002Z,102007.66
2023-04-02T18:29:58.180Z,102000.47
2023-04-02T18:32:47.190Z,102003.03
2023-04-02T18:36:08.772Z,101998.44
2023-04-02T18:38:54.982Z,101999.06
2023-04-02T18:41:49.244Z,102002.66
2023-04-02T18:44:34.796Z,102003.56
2023-04-02T18:47:39.016Z,102002.50
2023-04-02T18:50:33.434Z,101992.69
2023-04-02T18:53:30.332Z,101998.78
2023-04-02T18:56:07.511Z,101998.72
2023-04-02T18:58:47.690Z,101985.31
2023-04-02T19:01:23.601Z,101991.41
2023-04-02T19:03:55.912Z,101986.03
2023-04-02T19:06:46.223Z,101977.91
2023-04-02T19:09:33.811Z,101979.72
2023-04-02T19:12:03.379Z,101979.47
2023-04-02T19:14:31.895Z,101975.19
2023-04-02T19:17:05.785Z,101973.66
2023-04-02T19:20:12.336Z,101972.88
2023-04-02T19:23:15.310Z,101960.97
2023-04-02T19:25:55.969Z,101962.53
2023-04-02T19:28:49.895Z,101949.06
2023-04-02T19:31:50.724Z,101946.66
2023-04-02T19:34:39.247Z,101934.47
2023-04-02T19:37:24.415Z,101934.91
2023-04-02T19:40:20.459Z,101924.78
2023-04-02T19:42:52.761Z,101921.00
2023-04-02T19:45:34.963Z,101913.25
2023-04-02T19:48:12.649Z,101916.00
2023-04-02T19:50:41.565Z,101903.22
2023-04-02T19:53:09.839Z,101903.53
2023-04-02T19:55:38.603Z,101895.00
2023-04-02T19:58:18.900Z,101903.50
2023-04-02T20:00:48.067Z,101899.16
2023-04-02T20:03:16.451Z,101894.53
2023-04-02T20:05:44.725Z,101882.38
2023-04-02T20:08:13.075Z,101879.03
2023-04-02T20:10:42.266Z,101881.50
2023-04-02T20:13:10.747Z,101876.16
2023-04-02T20:15:41.246Z,101874.34
2023-04-02T20:18:11.396Z,101877.34
2023-04-02T20:20:40.253Z,101879.25
2023-04-02T20:23:08.463Z,101877.28
2023-04-02T20:25:36.818Z,101874.72
2023-04-02T20:28:05.329Z,101874.72
2023-04-02T20:30:33.666Z,101875.34
2023-04-02T20:33:02.055Z,101869.56
2023-04-02T20:35:31.898Z,101858.16
2023-04-02T20:38:00.188Z,101860.03
2023-04-02T20:40:28.412Z,101860.00
2023-04-02T20:42:56.750Z,101859.84
2023-04-02T20:45:25.404Z,101849.66
2023-04-02T20:47:53.753Z,101848.69
2023-04-02T20:50:22.583Z,101849.78
2023-04-02T20:52:50.815Z,101844.44
2023-04-02T20:55:22.570Z,101839.03
2023-04-02T20:57:50.820Z,101832.75
2023-04-02T21:00:19.371Z,101830.59
2023-04-02T21:02:47.669Z,101831.38
2023-04-02T21:05:15.963Z,101819.13
2023-04-02T21:07:44.185Z,101821.91
2023-04-02T21:10:12.556Z,101812.56
2023-04-02T21:12:40.747Z,101816.84
2023-04-02T21:15:12.380Z,101806.44
2023-04-02T21:17:40.627Z,101811.03
2023-04-02T21:20:10.718Z,101802.78
2023-04-02T21:22:39.593Z,101804.53
2023-04-02T21:25:08.140Z,101807.19
2023-04-02T21:27:36.370Z,101801.50
2023-04-02T21:30:05.070Z,101807.19
2023-04-02T21:32:34.051Z,101811.22
2023-04-02T21:35:02.369Z,101805.72
2023-04-02T21:37:30.647Z,101793.78
2023-04-02T21:39:58.977Z,101796.16
2023-04-02T21:42:28.576Z,101784.31
2023-04-02T21:44:56.857Z,101792.97
2023-04-02T21:47:25.724Z,101780.22
2023-04-02T21:49:53.956Z,101780.13
2023-04-02T21:52:22.219Z,101788.31
2023-04-02T21:54:50.491Z,101781.38
2023-04-02T21:57:19.242Z,101771.78
2023-04-02T21:59:47.626Z,101779.94
2023-04-02T22:02:15.813Z,101770.44
2023-04-02T22:04:44.000Z,101766.44
2023-04-02T22:07:12.196Z,101761.34
2023-04-02T22:09:40.453Z,101766.72
2023-04-02T22:12:08.987Z,101762.28
2023-04-02T22:14:37.228Z,101762.59
2023-04-02T22:17:05.567Z,101756.72
2023-04-02T22:19:34.000Z,101752.56
2023-04-02T22:22:02.329Z,101757.91
2023-04-02T22:24:30.655Z,101757.38
2023-04-02T22:26:58.924Z,101745.22
2023-04-02T22:29:27.147Z,101740.13
2023-04-02T22:31:55.426Z,101741.69
2023-04-02T22:34:23.748Z,101745.97
2023-04-02T22:36:53.825Z,101750.03
2023-04-02T22:39:22.126Z,101737.03
2023-04-02T22:41:50.383Z,101740.28
2023-04-02T22:44:18.671Z,101741.66
2023-04-02T22:46:47.392Z,101732.97
2023-04-02T22:49:19.843Z,101740.66
2023-04-02T22:51:48.538Z,101735.44
2023-04-02T22:54:16.861Z,101729.66
2023-04-02T22:56:45.234Z,101727.81
2023-04-02T22:59:13.541Z,101729.78
2023-04-02T23:01:42.000Z,101740.88
2023-04-02T23:04:10.276Z,101737.38
2023-04-02T23:06:38.466Z,101727.28
2023-04-02T23:09:06.756Z,101737.44
2023-04-02T23:11:35.273Z,101728.78
2023-04-02T23:14:03.511Z,101738.72
2023-04-02T23:16:32.356Z,101724.66
2023-04-02T23:19:00.647Z,101733.66
2023-04-02T23:21:29.192Z,101733.41
2023-04-02T23:23:57.587Z,101737.34
2023-04-02T23:26:32.188Z,101736.81
2023-04-02T23:29:01.608Z,101728.03
2023-04-02T23:31:30.003Z,101734.41
2023-04-02T23:33:58.279Z,101734.75
2023-04-02T23:36:31.878Z,101733.06
2023-04-02T23:39:10.105Z,101738.59
2023-04-02T23:41:40.180Z,101744.31
2023-04-02T23:44:09.384Z,101740.66
2023-04-02T23:46:38.058Z,101733.72
2023-04-02T23:49:06.489Z,101745.41
2023-04-02T23:51:34.824Z,101739.34
2023-04-02T23:54:03.135Z,101741.94
2023-04-02T23:56:31.523Z,101738.38
2023-04-02T23:58:59.696Z,101738.28
